sensor_id;sensor_type;location;lat;lon;timestamp;P1;durP1;ratioP1;P2;durP2;ratioP2
75152;SDS011;63734;45.218;36.708;2022-11-09T00:01:18;6.10;;;3.70;;
75152;SDS011;63734;45.218;36.708;2022-11-09T00:03:44;3.20;;;2.25;;
75152;SDS011;63734;45.218;36.708;2022-11-09T00:06:11;4.47;;;2.70;;
75152;SDS011;63734;45.218;36.708;2022-11-09T00:08:37;5.97;;;3.60;;
75152;SDS011;63734;45.218;36.708;2022-11-09T00:11:04;5.72;;;2.60;;
75152;SDS011;63734;45.218;36.708;2022-11-09T00:13:36;7.93;;;2.95;;
75152;SDS011;63734;45.218;36.708;2022-11-09T00:16:03;6.43;;;3.45;;
75152;SDS011;63734;45.218;36.708;2022-11-09T00:18:30;5.38;;;3.20;;
75152;SDS011;63734;45.218;36.708;2022-11-09T00:20:58;4.65;;;2.83;;
75152;SDS011;63734;45.218;36.708;2022-11-09T00:23:24;5.18;;;2.95;;
75152;SDS011;63734;45.218;36.708;2022-11-09T00:25:50;4.35;;;2.80;;
75152;SDS011;63734;45.218;36.708;2022-11-09T00:28:16;8.23;;;3.15;;
75152;SDS011;63734;45.218;36.708;2022-11-09T00:30:41;5.03;;;2.90;;
75152;SDS011;63734;45.218;36.708;2022-11-09T00:33:08;7.32;;;3.70;;
75152;SDS011;63734;45.218;36.708;2022-11-09T00:35:36;7.38;;;3.58;;
75152;SDS011;63734;45.218;36.708;2022-11-09T00:38:03;11.68;;;3.70;;
75152;SDS011;63734;45.218;36.708;2022-11-09T00:40:30;8.23;;;4.15;;
75152;SDS011;63734;45.218;36.708;2022-11-09T00:42:56;8.88;;;4.20;;
75152;SDS011;63734;45.218;36.708;2022-11-09T00:45:22;8.27;;;2.88;;
75152;SDS011;63734;45.218;36.708;2022-11-09T00:47:48;6.80;;;3.00;;
75152;SDS011;63734;45.218;36.708;2022-11-09T00:50:14;8.88;;;4.38;;
75152;SDS011;63734;45.218;36.708;2022-11-09T00:52:40;8.38;;;3.70;;
75152;SDS011;63734;45.218;36.708;2022-11-09T00:55:06;9.63;;;2.88;;
75152;SDS011;63734;45.218;36.708;2022-11-09T00:57:32;7.45;;;3.35;;
75152;SDS011;63734;45.218;36.708;2022-11-09T00:59:58;7.10;;;3.95;;
75152;SDS011;63734;45.218;36.708;2022-11-09T01:02:24;11.07;;;3.90;;
75152;SDS011;63734;45.218;36.708;2022-11-09T01:04:50;7.80;;;4.30;;
75152;SDS011;63734;45.218;36.708;2022-11-09T01:07:17;5.93;;;3.38;;
75152;SDS011;63734;45.218;36.708;2022-11-09T01:09:43;5.10;;;3.38;;
75152;SDS011;63734;45.218;36.708;2022-11-09T01:12:09;6.60;;;3.40;;
75152;SDS011;63734;45.218;36.708;2022-11-09T01:14:35;5.50;;;3.45;;
75152;SDS011;63734;45.218;36.708;2022-11-09T01:17:02;6.93;;;3.67;;
75152;SDS011;63734;45.218;36.708;2022-11-09T01:19:28;6.43;;;3.70;;
75152;SDS011;63734;45.218;36.708;2022-11-09T01:21:54;8.60;;;3.83;;
75152;SDS011;63734;45.218;36.708;2022-11-09T01:24:19;6.40;;;3.13;;
75152;SDS011;63734;45.218;36.708;2022-11-09T01:26:46;6.35;;;3.80;;
75152;SDS011;63734;45.218;36.708;2022-11-09T01:29:12;5.50;;;3.35;;
75152;SDS011;63734;45.218;36.708;2022-11-09T01:31:38;6.22;;;3.67;;
75152;SDS011;63734;45.218;36.708;2022-11-09T01:34:04;6.68;;;3.85;;
75152;SDS011;63734;45.218;36.708;2022-11-09T01:36:31;8.88;;;3.47;;
75152;SDS011;63734;45.218;36.708;2022-11-09T01:38:59;5.90;;;3.63;;
75152;SDS011;63734;45.218;36.708;2022-11-09T01:41:26;6.05;;;3.50;;
75152;SDS011;63734;45.218;36.708;2022-11-09T01:49:36;6.70;;;3.38;;
75152;SDS011;63734;45.218;36.708;2022-11-09T01:54:53;5.28;;;3.10;;
75152;SDS011;63734;45.218;36.708;2022-11-09T01:58:06;5.40;;;3.05;;
75152;SDS011;63734;45.218;36.708;2022-11-09T02:00:16;6.37;;;3.13;;
75152;SDS011;63734;45.218;36.708;2022-11-09T02:02:43;4.05;;;2.90;;
75152;SDS011;63734;45.218;36.708;2022-11-09T02:05:16;6.10;;;3.20;;
75152;SDS011;63734;45.218;36.708;2022-11-09T02:07:49;7.78;;;3.20;;
75152;SDS011;63734;45.218;36.708;2022-11-09T02:10:21;6.10;;;3.05;;
75152;SDS011;63734;45.218;36.708;2022-11-09T02:12:54;5.85;;;2.95;;
75152;SDS011;63734;45.218;36.708;2022-11-09T02:15:23;6.45;;;3.53;;
75152;SDS011;63734;45.218;36.708;2022-11-09T02:17:50;9.23;;;3.40;;
75152;SDS011;63734;45.218;36.708;2022-11-09T02:20:18;7.45;;;3.55;;
75152;SDS011;63734;45.218;36.708;2022-11-09T02:22:44;7.55;;;4.28;;
75152;SDS011;63734;45.218;36.708;2022-11-09T02:25:11;13.85;;;4.45;;
75152;SDS011;63734;45.218;36.708;2022-11-09T02:27:39;9.55;;;3.20;;
75152;SDS011;63734;45.218;36.708;2022-11-09T02:30:07;6.68;;;2.67;;
75152;SDS011;63734;45.218;36.708;2022-11-09T02:32:35;8.80;;;3.75;;
75152;SDS011;63734;45.218;36.708;2022-11-09T02:35:01;4.82;;;2.92;;
75152;SDS011;63734;45.218;36.708;2022-11-09T02:40:03;8.05;;;3.40;;
75152;SDS011;63734;45.218;36.708;2022-11-09T02:42:34;5.15;;;3.33;;
75152;SDS011;63734;45.218;36.708;2022-11-09T02:45:00;5.25;;;2.88;;
75152;SDS011;63734;45.218;36.708;2022-11-09T02:47:26;3.63;;;2.58;;
75152;SDS011;63734;45.218;36.708;2022-11-09T02:49:52;7.00;;;3.78;;
75152;SDS011;63734;45.218;36.708;2022-11-09T02:52:18;6.85;;;3.72;;
75152;SDS011;63734;45.218;36.708;2022-11-09T02:54:44;6.22;;;3.05;;
75152;SDS011;63734;45.218;36.708;2022-11-09T02:57:11;4.85;;;3.10;;
75152;SDS011;63734;45.218;36.708;2022-11-09T02:59:37;8.27;;;3.53;;
75152;SDS011;63734;45.218;36.708;2022-11-09T03:02:04;3.88;;;2.53;;
75152;SDS011;63734;45.218;36.708;2022-11-09T03:04:31;4.63;;;3.08;;
75152;SDS011;63734;45.218;36.708;2022-11-09T03:06:58;4.63;;;2.90;;
75152;SDS011;63734;45.218;36.708;2022-11-09T03:09:26;6.55;;;3.63;;
75152;SDS011;63734;45.218;36.708;2022-11-09T03:11:52;5.93;;;3.20;;
75152;SDS011;63734;45.218;36.708;2022-11-09T03:14:19;6.47;;;3.72;;
75152;SDS011;63734;45.218;36.708;2022-11-09T03:16:50;7.07;;;3.58;;
75152;SDS011;63734;45.218;36.708;2022-11-09T03:19:16;6.72;;;2.92;;
75152;SDS011;63734;45.218;36.708;2022-11-09T03:21:43;7.25;;;3.58;;
75152;SDS011;63734;45.218;36.708;2022-11-09T03:24:10;8.80;;;4.68;;
75152;SDS011;63734;45.218;36.708;2022-11-09T03:26:37;10.23;;;4.20;;
75152;SDS011;63734;45.218;36.708;2022-11-09T03:29:03;10.00;;;4.05;;
75152;SDS011;63734;45.218;36.708;2022-11-09T03:31:30;9.93;;;4.40;;
75152;SDS011;63734;45.218;36.708;2022-11-09T03:34:00;9.63;;;2.97;;
75152;SDS011;63734;45.218;36.708;2022-11-09T03:36:26;7.90;;;3.47;;
75152;SDS011;63734;45.218;36.708;2022-11-09T03:38:52;6.90;;;3.22;;
75152;SDS011;63734;45.218;36.708;2022-11-09T03:41:18;8.95;;;4.00;;
75152;SDS011;63734;45.218;36.708;2022-11-09T03:43:44;6.88;;;3.90;;
75152;SDS011;63734;45.218;36.708;2022-11-09T03:46:10;10.38;;;3.90;;
75152;SDS011;63734;45.218;36.708;2022-11-09T03:48:36;7.22;;;2.97;;
75152;SDS011;63734;45.218;36.708;2022-11-09T03:51:02;8.52;;;3.72;;
75152;SDS011;63734;45.218;36.708;2022-11-09T03:53:28;6.35;;;2.33;;
75152;SDS011;63734;45.218;36.708;2022-11-09T03:55:56;7.47;;;3.88;;
75152;SDS011;63734;45.218;36.708;2022-11-09T03:58:22;6.57;;;4.22;;
75152;SDS011;63734;45.218;36.708;2022-11-09T04:00:48;7.15;;;4.05;;
75152;SDS011;63734;45.218;36.708;2022-11-09T04:03:14;8.57;;;3.88;;
75152;SDS011;63734;45.218;36.708;2022-11-09T04:05:40;6.57;;;4.03;;
75152;SDS011;63734;45.218;36.708;2022-11-09T04:08:06;8.55;;;4.40;;
75152;SDS011;63734;45.218;36.708;2022-11-09T04:10:32;6.63;;;3.65;;
75152;SDS011;63734;45.218;36.708;2022-11-09T04:12:58;7.25;;;4.00;;
75152;SDS011;63734;45.218;36.708;2022-11-09T04:15:24;8.77;;;4.82;;
75152;SDS011;63734;45.218;36.708;2022-11-09T04:17:57;8.32;;;4.05;;
75152;SDS011;63734;45.218;36.708;2022-11-09T04:20:25;7.07;;;4.32;;
75152;SDS011;63734;45.218;36.708;2022-11-09T04:22:55;8.63;;;3.67;;
75152;SDS011;63734;45.218;36.708;2022-11-09T04:25:22;8.25;;;3.97;;
75152;SDS011;63734;45.218;36.708;2022-11-09T04:27:54;9.43;;;4.15;;
75152;SDS011;63734;45.218;36.708;2022-11-09T04:30:23;7.15;;;3.50;;
75152;SDS011;63734;45.218;36.708;2022-11-09T04:32:52;8.43;;;4.10;;
75152;SDS011;63734;45.218;36.708;2022-11-09T04:35:19;11.48;;;5.05;;
75152;SDS011;63734;45.218;36.708;2022-11-09T04:38:18;10.73;;;4.80;;
75152;SDS011;63734;45.218;36.708;2022-11-09T04:40:38;9.52;;;4.55;;
75152;SDS011;63734;45.218;36.708;2022-11-09T04:43:05;8.15;;;4.50;;
75152;SDS011;63734;45.218;36.708;2022-11-09T04:45:33;7.45;;;4.00;;
75152;SDS011;63734;45.218;36.708;2022-11-09T04:48:00;10.43;;;4.82;;
75152;SDS011;63734;45.218;36.708;2022-11-09T04:50:29;8.73;;;4.55;;
75152;SDS011;63734;45.218;36.708;2022-11-09T04:53:02;10.05;;;4.22;;
75152;SDS011;63734;45.218;36.708;2022-11-09T04:55:30;10.10;;;5.20;;
75152;SDS011;63734;45.218;36.708;2022-11-09T04:57:56;8.90;;;4.47;;
75152;SDS011;63734;45.218;36.708;2022-11-09T05:00:22;8.18;;;4.72;;
75152;SDS011;63734;45.218;36.708;2022-11-09T05:02:47;10.57;;;4.85;;
75152;SDS011;63734;45.218;36.708;2022-11-09T05:05:13;9.35;;;4.18;;
75152;SDS011;63734;45.218;36.708;2022-11-09T05:07:39;13.27;;;5.03;;
75152;SDS011;63734;45.218;36.708;2022-11-09T05:10:05;11.00;;;4.13;;
75152;SDS011;63734;45.218;36.708;2022-11-09T05:12:32;11.10;;;4.88;;
75152;SDS011;63734;45.218;36.708;2022-11-09T05:14:58;12.18;;;4.60;;
75152;SDS011;63734;45.218;36.708;2022-11-09T05:17:23;10.30;;;5.13;;
75152;SDS011;63734;45.218;36.708;2022-11-09T05:19:49;11.23;;;4.55;;
75152;SDS011;63734;45.218;36.708;2022-11-09T05:22:16;8.73;;;4.50;;
75152;SDS011;63734;45.218;36.708;2022-11-09T05:25:00;7.53;;;4.00;;
75152;SDS011;63734;45.218;36.708;2022-11-09T05:27:26;8.65;;;4.43;;
75152;SDS011;63734;45.218;36.708;2022-11-09T05:29:52;8.63;;;4.20;;
75152;SDS011;63734;45.218;36.708;2022-11-09T05:32:18;12.35;;;4.53;;
75152;SDS011;63734;45.218;36.708;2022-11-09T05:34:44;10.48;;;4.75;;
75152;SDS011;63734;45.218;36.708;2022-11-09T05:37:09;10.20;;;5.03;;
75152;SDS011;63734;45.218;36.708;2022-11-09T05:39:35;7.40;;;4.18;;
75152;SDS011;63734;45.218;36.708;2022-11-09T05:42:01;8.52;;;4.72;;
75152;SDS011;63734;45.218;36.708;2022-11-09T05:44:27;6.30;;;3.42;;
75152;SDS011;63734;45.218;36.708;2022-11-09T05:46:53;8.82;;;4.18;;
75152;SDS011;63734;45.218;36.708;2022-11-09T05:49:19;8.45;;;4.30;;
75152;SDS011;63734;45.218;36.708;2022-11-09T05:51:45;9.68;;;4.72;;
75152;SDS011;63734;45.218;36.708;2022-11-09T05:54:11;11.98;;;5.50;;
75152;SDS011;63734;45.218;36.708;2022-11-09T05:56:37;7.00;;;3.75;;
75152;SDS011;63734;45.218;36.708;2022-11-09T05:59:03;8.68;;;4.63;;
75152;SDS011;63734;45.218;36.708;2022-11-09T06:01:29;9.77;;;4.50;;
75152;SDS011;63734;45.218;36.708;2022-11-09T06:03:55;7.97;;;3.92;;
75152;SDS011;63734;45.218;36.708;2022-11-09T06:06:21;8.63;;;3.97;;
75152;SDS011;63734;45.218;36.708;2022-11-09T06:08:47;8.70;;;4.50;;
75152;SDS011;63734;45.218;36.708;2022-11-09T06:11:14;6.68;;;4.65;;
75152;SDS011;63734;45.218;36.708;2022-11-09T06:13:40;9.63;;;4.68;;
75152;SDS011;63734;45.218;36.708;2022-11-09T06:16:06;13.70;;;5.00;;
75152;SDS011;63734;45.218;36.708;2022-11-09T06:18:34;11.88;;;4.60;;
75152;SDS011;63734;45.218;36.708;2022-11-09T06:21:02;10.98;;;5.40;;
75152;SDS011;63734;45.218;36.708;2022-11-09T06:23:29;8.85;;;4.72;;
75152;SDS011;63734;45.218;36.708;2022-11-09T06:25:58;10.43;;;5.20;;
75152;SDS011;63734;45.218;36.708;2022-11-09T06:28:31;10.07;;;4.70;;
75152;SDS011;63734;45.218;36.708;2022-11-09T06:30:57;14.18;;;5.05;;
75152;SDS011;63734;45.218;36.708;2022-11-09T06:33:25;14.13;;;5.95;;
75152;SDS011;63734;45.218;36.708;2022-11-09T06:35:51;10.13;;;5.35;;
75152;SDS011;63734;45.218;36.708;2022-11-09T06:38:17;8.38;;;4.25;;
75152;SDS011;63734;45.218;36.708;2022-11-09T06:40:43;8.05;;;4.18;;
75152;SDS011;63734;45.218;36.708;2022-11-09T06:43:09;8.88;;;5.10;;
75152;SDS011;63734;45.218;36.708;2022-11-09T06:45:35;10.50;;;5.18;;
75152;SDS011;63734;45.218;36.708;2022-11-09T06:48:01;8.23;;;4.40;;
75152;SDS011;63734;45.218;36.708;2022-11-09T06:50:29;9.80;;;4.40;;
75152;SDS011;63734;45.218;36.708;2022-11-09T06:52:58;9.90;;;4.65;;
75152;SDS011;63734;45.218;36.708;2022-11-09T06:55:26;7.70;;;4.53;;
75152;SDS011;63734;45.218;36.708;2022-11-09T06:57:53;9.10;;;4.85;;
75152;SDS011;63734;45.218;36.708;2022-11-09T07:00:19;11.13;;;4.97;;
75152;SDS011;63734;45.218;36.708;2022-11-09T07:02:46;9.25;;;4.88;;
75152;SDS011;63734;45.218;36.708;2022-11-09T07:05:12;9.93;;;4.88;;
75152;SDS011;63734;45.218;36.708;2022-11-09T07:07:38;7.38;;;4.05;;
75152;SDS011;63734;45.218;36.708;2022-11-09T07:10:04;8.02;;;4.07;;
75152;SDS011;63734;45.218;36.708;2022-11-09T07:12:30;7.20;;;4.55;;
75152;SDS011;63734;45.218;36.708;2022-11-09T07:14:58;8.40;;;4.60;;
75152;SDS011;63734;45.218;36.708;2022-11-09T07:17:24;8.93;;;4.63;;
75152;SDS011;63734;45.218;36.708;2022-11-09T07:19:50;11.60;;;4.72;;
75152;SDS011;63734;45.218;36.708;2022-11-09T07:22:16;10.65;;;5.40;;
75152;SDS011;63734;45.218;36.708;2022-11-09T07:24:42;7.75;;;4.43;;
75152;SDS011;63734;45.218;36.708;2022-11-09T07:27:08;9.70;;;4.97;;
75152;SDS011;63734;45.218;36.708;2022-11-09T07:29:34;9.20;;;4.63;;
75152;SDS011;63734;45.218;36.708;2022-11-09T07:32:00;8.00;;;4.63;;
75152;SDS011;63734;45.218;36.708;2022-11-09T07:34:26;7.55;;;4.45;;
75152;SDS011;63734;45.218;36.708;2022-11-09T07:36:52;8.15;;;4.75;;
75152;SDS011;63734;45.218;36.708;2022-11-09T07:39:18;11.95;;;4.93;;
75152;SDS011;63734;45.218;36.708;2022-11-09T07:41:47;12.15;;;4.97;;
75152;SDS011;63734;45.218;36.708;2022-11-09T07:44:14;9.13;;;4.40;;
75152;SDS011;63734;45.218;36.708;2022-11-09T07:46:43;7.75;;;4.20;;
75152;SDS011;63734;45.218;36.708;2022-11-09T07:49:11;6.63;;;4.10;;
75152;SDS011;63734;45.218;36.708;2022-11-09T07:51:38;12.90;;;5.82;;
75152;SDS011;63734;45.218;36.708;2022-11-09T07:54:05;7.85;;;4.13;;
75152;SDS011;63734;45.218;36.708;2022-11-09T07:56:31;9.15;;;4.43;;
75152;SDS011;63734;45.218;36.708;2022-11-09T07:58:57;10.70;;;4.80;;
75152;SDS011;63734;45.218;36.708;2022-11-09T08:01:23;12.82;;;5.53;;
75152;SDS011;63734;45.218;36.708;2022-11-09T08:03:49;10.82;;;5.07;;
75152;SDS011;63734;45.218;36.708;2022-11-09T08:06:14;10.43;;;5.07;;
75152;SDS011;63734;45.218;36.708;2022-11-09T08:08:40;7.07;;;4.15;;
75152;SDS011;63734;45.218;36.708;2022-11-09T08:11:06;6.72;;;5.00;;
75152;SDS011;63734;45.218;36.708;2022-11-09T08:13:32;10.27;;;5.22;;
75152;SDS011;63734;45.218;36.708;2022-11-09T08:16:02;8.07;;;4.75;;
75152;SDS011;63734;45.218;36.708;2022-11-09T08:18:28;7.50;;;4.32;;
75152;SDS011;63734;45.218;36.708;2022-11-09T08:20:54;8.30;;;4.40;;
75152;SDS011;63734;45.218;36.708;2022-11-09T08:23:21;7.15;;;4.43;;
75152;SDS011;63734;45.218;36.708;2022-11-09T08:25:48;7.75;;;4.70;;
75152;SDS011;63734;45.218;36.708;2022-11-09T08:28:15;8.95;;;5.30;;
75152;SDS011;63734;45.218;36.708;2022-11-09T08:30:42;8.95;;;4.80;;
75152;SDS011;63734;45.218;36.708;2022-11-09T08:33:09;7.95;;;4.03;;
75152;SDS011;63734;45.218;36.708;2022-11-09T08:35:36;6.65;;;4.07;;
75152;SDS011;63734;45.218;36.708;2022-11-09T08:38:03;11.13;;;5.20;;
75152;SDS011;63734;45.218;36.708;2022-11-09T08:40:30;13.45;;;5.28;;
75152;SDS011;63734;45.218;36.708;2022-11-09T08:43:01;11.45;;;5.55;;
75152;SDS011;63734;45.218;36.708;2022-11-09T08:45:28;12.32;;;5.90;;
75152;SDS011;63734;45.218;36.708;2022-11-09T08:47:57;16.13;;;7.05;;
75152;SDS011;63734;45.218;36.708;2022-11-09T08:50:24;10.43;;;4.57;;
75152;SDS011;63734;45.218;36.708;2022-11-09T08:52:51;12.60;;;5.90;;
75152;SDS011;63734;45.218;36.708;2022-11-09T08:55:17;10.38;;;6.53;;
75152;SDS011;63734;45.218;36.708;2022-11-09T08:57:43;10.85;;;6.40;;
75152;SDS011;63734;45.218;36.708;2022-11-09T09:00:09;13.35;;;6.22;;
75152;SDS011;63734;45.218;36.708;2022-11-09T09:02:35;9.27;;;5.25;;
75152;SDS011;63734;45.218;36.708;2022-11-09T09:05:01;10.05;;;4.93;;
75152;SDS011;63734;45.218;36.708;2022-11-09T09:07:28;9.70;;;4.68;;
75152;SDS011;63734;45.218;36.708;2022-11-09T09:09:54;10.90;;;6.88;;
75152;SDS011;63734;45.218;36.708;2022-11-09T09:12:20;11.63;;;5.75;;
75152;SDS011;63734;45.218;36.708;2022-11-09T09:14:46;8.02;;;4.80;;
75152;SDS011;63734;45.218;36.708;2022-11-09T09:17:12;11.00;;;6.00;;
75152;SDS011;63734;45.218;36.708;2022-11-09T09:19:38;12.82;;;6.05;;
75152;SDS011;63734;45.218;36.708;2022-11-09T09:22:04;18.48;;;7.68;;
75152;SDS011;63734;45.218;36.708;2022-11-09T09:24:30;11.38;;;6.20;;
75152;SDS011;63734;45.218;36.708;2022-11-09T09:26:56;10.40;;;6.30;;
75152;SDS011;63734;45.218;36.708;2022-11-09T09:29:22;8.88;;;5.45;;
75152;SDS011;63734;45.218;36.708;2022-11-09T09:31:48;13.15;;;5.32;;
75152;SDS011;63734;45.218;36.708;2022-11-09T09:34:14;12.50;;;5.20;;
75152;SDS011;63734;45.218;36.708;2022-11-09T09:36:40;13.82;;;7.05;;
75152;SDS011;63734;45.218;36.708;2022-11-09T09:39:07;13.75;;;7.43;;
75152;SDS011;63734;45.218;36.708;2022-11-09T09:46:58;12.05;;;6.22;;
75152;SDS011;63734;45.218;36.708;2022-11-09T09:49:32;18.05;;;6.95;;
75152;SDS011;63734;45.218;36.708;2022-11-09T09:55:34;11.02;;;6.38;;
75152;SDS011;63734;45.218;36.708;2022-11-09T09:57:45;13.05;;;7.07;;
75152;SDS011;63734;45.218;36.708;2022-11-09T10:00:20;13.05;;;6.15;;
75152;SDS011;63734;45.218;36.708;2022-11-09T10:02:50;13.82;;;6.03;;
75152;SDS011;63734;45.218;36.708;2022-11-09T10:05:18;15.30;;;6.45;;
75152;SDS011;63734;45.218;36.708;2022-11-09T10:12:59;14.43;;;6.75;;
75152;SDS011;63734;45.218;36.708;2022-11-09T10:23:42;12.55;;;6.82;;
75152;SDS011;63734;45.218;36.708;2022-11-09T10:26:17;15.57;;;6.90;;
75152;SDS011;63734;45.218;36.708;2022-11-09T10:28:44;12.25;;;6.10;;
75152;SDS011;63734;45.218;36.708;2022-11-09T10:31:19;12.07;;;5.47;;
75152;SDS011;63734;45.218;36.708;2022-11-09T10:33:48;12.20;;;6.00;;
75152;SDS011;63734;45.218;36.708;2022-11-09T10:36:38;14.52;;;6.47;;
75152;SDS011;63734;45.218;36.708;2022-11-09T10:39:14;15.98;;;6.43;;
75152;SDS011;63734;45.218;36.708;2022-11-09T10:41:59;13.93;;;6.10;;
75152;SDS011;63734;45.218;36.708;2022-11-09T10:44:43;14.80;;;6.38;;
75152;SDS011;63734;45.218;36.708;2022-11-09T10:47:28;14.15;;;5.93;;
75152;SDS011;63734;45.218;36.708;2022-11-09T10:53:31;10.23;;;5.47;;
75152;SDS011;63734;45.218;36.708;2022-11-09T10:56:17;11.60;;;5.85;;
75152;SDS011;63734;45.218;36.708;2022-11-09T10:59:25;13.50;;;6.03;;
75152;SDS011;63734;45.218;36.708;2022-11-09T11:02:38;12.45;;;5.97;;
75152;SDS011;63734;45.218;36.708;2022-11-09T11:05:25;9.73;;;5.47;;
75152;SDS011;63734;45.218;36.708;2022-11-09T11:08:19;9.13;;;5.40;;
75152;SDS011;63734;45.218;36.708;2022-11-09T11:11:16;12.55;;;6.18;;
75152;SDS011;63734;45.218;36.708;2022-11-09T11:21:17;12.98;;;6.57;;
75152;SDS011;63734;45.218;36.708;2022-11-09T11:24:15;12.15;;;5.30;;
75152;SDS011;63734;45.218;36.708;2022-11-09T11:30:30;15.27;;;6.00;;
75152;SDS011;63734;45.218;36.708;2022-11-09T11:33:19;8.68;;;4.65;;
75152;SDS011;63734;45.218;36.708;2022-11-09T11:54:52;10.13;;;4.75;;
75152;SDS011;63734;45.218;36.708;2022-11-09T12:04:02;9.63;;;5.15;;
75152;SDS011;63734;45.218;36.708;2022-11-09T12:19:28;7.25;;;4.05;;
75152;SDS011;63734;45.218;36.708;2022-11-09T12:22:21;7.55;;;4.57;;
75152;SDS011;63734;45.218;36.708;2022-11-09T12:25:53;7.47;;;4.28;;
75152;SDS011;63734;45.218;36.708;2022-11-09T12:28:45;10.40;;;5.47;;
75152;SDS011;63734;45.218;36.708;2022-11-09T12:31:53;9.38;;;4.82;;
75152;SDS011;63734;45.218;36.708;2022-11-09T12:37:44;9.90;;;5.55;;
75152;SDS011;63734;45.218;36.708;2022-11-09T12:40:33;12.00;;;6.13;;
75152;SDS011;63734;45.218;36.708;2022-11-09T12:46:09;11.23;;;5.10;;
75152;SDS011;63734;45.218;36.708;2022-11-09T12:48:56;11.77;;;5.75;;
75152;SDS011;63734;45.218;36.708;2022-11-09T12:51:45;15.27;;;5.82;;
75152;SDS011;63734;45.218;36.708;2022-11-09T12:54:30;11.88;;;6.13;;
75152;SDS011;63734;45.218;36.708;2022-11-09T12:57:19;9.27;;;4.70;;
75152;SDS011;63734;45.218;36.708;2022-11-09T13:00:13;7.20;;;4.32;;
75152;SDS011;63734;45.218;36.708;2022-11-09T13:03:20;7.50;;;4.55;;
75152;SDS011;63734;45.218;36.708;2022-11-09T13:06:18;7.95;;;4.13;;
75152;SDS011;63734;45.218;36.708;2022-11-09T13:09:18;9.38;;;4.57;;
75152;SDS011;63734;45.218;36.708;2022-11-09T13:12:25;8.02;;;4.47;;
75152;SDS011;63734;45.218;36.708;2022-11-09T13:24:47;11.07;;;4.75;;
75152;SDS011;63734;45.218;36.708;2022-11-09T13:30:37;6.22;;;4.07;;
75152;SDS011;63734;45.218;36.708;2022-11-09T13:33:23;9.30;;;5.72;;
75152;SDS011;63734;45.218;36.708;2022-11-09T13:48:22;11.63;;;6.07;;
75152;SDS011;63734;45.218;36.708;2022-11-09T13:51:09;9.10;;;5.50;;
75152;SDS011;63734;45.218;36.708;2022-11-09T13:54:01;9.93;;;5.60;;
75152;SDS011;63734;45.218;36.708;2022-11-09T13:56:48;9.52;;;5.03;;
75152;SDS011;63734;45.218;36.708;2022-11-09T13:59:55;12.07;;;5.53;;
75152;SDS011;63734;45.218;36.708;2022-11-09T14:02:40;13.32;;;6.10;;
75152;SDS011;63734;45.218;36.708;2022-11-09T14:05:48;11.25;;;5.65;;
75152;SDS011;63734;45.218;36.708;2022-11-09T14:08:35;10.35;;;5.38;;
75152;SDS011;63734;45.218;36.708;2022-11-09T14:11:30;9.95;;;5.40;;
75152;SDS011;63734;45.218;36.708;2022-11-09T14:14:30;11.75;;;5.80;;
75152;SDS011;63734;45.218;36.708;2022-11-09T14:20:54;9.68;;;5.50;;
75152;SDS011;63734;45.218;36.708;2022-11-09T14:23:48;14.63;;;6.97;;
75152;SDS011;63734;45.218;36.708;2022-11-09T14:26:33;9.43;;;5.15;;
75152;SDS011;63734;45.218;36.708;2022-11-09T14:29:21;17.20;;;7.03;;
75152;SDS011;63734;45.218;36.708;2022-11-09T14:35:09;14.13;;;6.72;;
75152;SDS011;63734;45.218;36.708;2022-11-09T14:37:56;13.32;;;5.95;;
75152;SDS011;63734;45.218;36.708;2022-11-09T14:40:43;15.02;;;7.75;;
75152;SDS011;63734;45.218;36.708;2022-11-09T14:43:39;17.60;;;8.07;;
75152;SDS011;63734;45.218;36.708;2022-11-09T14:46:28;15.65;;;7.88;;
75152;SDS011;63734;45.218;36.708;2022-11-09T14:49:14;14.77;;;8.13;;
75152;SDS011;63734;45.218;36.708;2022-11-09T14:51:58;19.00;;;9.38;;
75152;SDS011;63734;45.218;36.708;2022-11-09T14:54:43;23.55;;;10.88;;
75152;SDS011;63734;45.218;36.708;2022-11-09T14:57:29;19.70;;;8.68;;
75152;SDS011;63734;45.218;36.708;2022-11-09T15:00:46;19.38;;;9.38;;
75152;SDS011;63734;45.218;36.708;2022-11-09T15:03:29;15.90;;;8.57;;
75152;SDS011;63734;45.218;36.708;2022-11-09T15:06:14;17.73;;;8.55;;
75152;SDS011;63734;45.218;36.708;2022-11-09T15:09:02;17.58;;;8.00;;
75152;SDS011;63734;45.218;36.708;2022-11-09T15:11:50;18.17;;;8.00;;
75152;SDS011;63734;45.218;36.708;2022-11-09T15:14:35;15.30;;;7.38;;
75152;SDS011;63734;45.218;36.708;2022-11-09T15:17:24;18.45;;;8.35;;
75152;SDS011;63734;45.218;36.708;2022-11-09T15:23:02;18.88;;;8.07;;
75152;SDS011;63734;45.218;36.708;2022-11-09T15:28:33;15.05;;;7.50;;
75152;SDS011;63734;45.218;36.708;2022-11-09T15:31:28;17.40;;;7.28;;
75152;SDS011;63734;45.218;36.708;2022-11-09T15:34:17;16.35;;;7.47;;
75152;SDS011;63734;45.218;36.708;2022-11-09T15:37:23;17.20;;;7.35;;
75152;SDS011;63734;45.218;36.708;2022-11-09T15:40:13;19.33;;;7.72;;
75152;SDS011;63734;45.218;36.708;2022-11-09T15:42:59;24.45;;;9.80;;
75152;SDS011;63734;45.218;36.708;2022-11-09T15:45:45;18.88;;;8.25;;
75152;SDS011;63734;45.218;36.708;2022-11-09T15:48:30;18.75;;;9.20;;
75152;SDS011;63734;45.218;36.708;2022-11-09T15:51:16;21.48;;;10.25;;
75152;SDS011;63734;45.218;36.708;2022-11-09T15:54:01;23.73;;;9.85;;
75152;SDS011;63734;45.218;36.708;2022-11-09T15:56:46;19.50;;;9.35;;
75152;SDS011;63734;45.218;36.708;2022-11-09T15:59:30;14.68;;;7.00;;
75152;SDS011;63734;45.218;36.708;2022-11-09T16:02:15;22.10;;;10.27;;
75152;SDS011;63734;45.218;36.708;2022-11-09T16:05:02;17.75;;;7.63;;
75152;SDS011;63734;45.218;36.708;2022-11-09T16:07:47;17.55;;;9.43;;
75152;SDS011;63734;45.218;36.708;2022-11-09T16:10:36;17.63;;;8.90;;
75152;SDS011;63734;45.218;36.708;2022-11-09T16:13:22;21.25;;;9.50;;
75152;SDS011;63734;45.218;36.708;2022-11-09T16:16:07;19.65;;;8.63;;
75152;SDS011;63734;45.218;36.708;2022-11-09T16:18:53;25.63;;;10.15;;
75152;SDS011;63734;45.218;36.708;2022-11-09T16:21:38;16.85;;;8.15;;
75152;SDS011;63734;45.218;36.708;2022-11-09T16:24:23;20.38;;;9.82;;
75152;SDS011;63734;45.218;36.708;2022-11-09T16:27:08;22.00;;;10.30;;
75152;SDS011;63734;45.218;36.708;2022-11-09T16:29:54;17.80;;;9.10;;
75152;SDS011;63734;45.218;36.708;2022-11-09T16:32:39;24.50;;;10.45;;
75152;SDS011;63734;45.218;36.708;2022-11-09T16:35:23;19.60;;;9.30;;
75152;SDS011;63734;45.218;36.708;2022-11-09T16:38:08;23.42;;;9.32;;
75152;SDS011;63734;45.218;36.708;2022-11-09T16:40:52;22.40;;;9.10;;
75152;SDS011;63734;45.218;36.708;2022-11-09T16:43:37;19.77;;;9.45;;
75152;SDS011;63734;45.218;36.708;2022-11-09T16:46:25;23.33;;;10.15;;
75152;SDS011;63734;45.218;36.708;2022-11-09T16:49:11;17.05;;;9.07;;
75152;SDS011;63734;45.218;36.708;2022-11-09T16:51:56;18.00;;;8.82;;
75152;SDS011;63734;45.218;36.708;2022-11-09T16:54:41;23.67;;;10.65;;
75152;SDS011;63734;45.218;36.708;2022-11-09T16:57:25;19.58;;;9.07;;
75152;SDS011;63734;45.218;36.708;2022-11-09T17:00:10;22.60;;;9.77;;
75152;SDS011;63734;45.218;36.708;2022-11-09T17:02:55;19.23;;;9.30;;
75152;SDS011;63734;45.218;36.708;2022-11-09T17:05:40;20.70;;;9.55;;
75152;SDS011;63734;45.218;36.708;2022-11-09T17:08:25;19.23;;;10.13;;
75152;SDS011;63734;45.218;36.708;2022-11-09T17:11:12;27.45;;;10.10;;
75152;SDS011;63734;45.218;36.708;2022-11-09T17:14:00;25.35;;;10.98;;
75152;SDS011;63734;45.218;36.708;2022-11-09T17:16:44;20.83;;;9.88;;